sensor_id;sensor_type;location;lat;lon;timestamp;pressure;altitude;pressure_sealevel;temperature;humidity
77023;BME280;65952;51.440;-2.054;2024-03-22T00:00:30;100832.78;;;12.93;57.17
77023;BME280;65952;51.440;-2.054;2024-03-22T00:02:56;100835.00;;;12.73;57.49
77023;BME280;65952;51.440;-2.054;2024-03-22T00:05:21;100832.31;;;12.81;57.59
77023;BME280;65952;51.440;-2.054;2024-03-22T00:07:47;100835.84;;;12.90;57.05
77023;BME280;65952;51.440;-2.054;2024-03-22T00:10:13;100831.44;;;12.89;57.41
77023;BME280;65952;51.440;-2.054;2024-03-22T00:12:39;100840.03;;;12.92;57.20
77023;BME280;65952;51.440;-2.054;2024-03-22T00:15:59;100835.81;;;12.81;57.63
77023;BME280;65952;51.440;-2.054;2024-03-22T00:19:07;100831.94;;;12.84;57.44
77023;BME280;65952;51.440;-2.054;2024-03-22T00:24:56;100819.38;;;12.51;57.96
77023;BME280;65952;51.440;-2.054;2024-03-22T00:27:22;100815.31;;;12.80;57.31
77023;BME280;65952;51.440;-2.054;2024-03-22T00:29:47;100818.00;;;12.72;57.54
77023;BME280;65952;51.440;-2.054;2024-03-22T00:32:31;100809.75;;;12.74;57.64
77023;BME280;65952;51.440;-2.054;2024-03-22T00:35:00;100814.44;;;12.80;57.48
77023;BME280;65952;51.440;-2.054;2024-03-22T00:37:25;100811.25;;;12.84;57.04
77023;BME280;65952;51.440;-2.054;2024-03-22T00:39:51;100812.09;;;12.85;57.24
77023;BME280;65952;51.440;-2.054;2024-03-22T00:42:16;100801.16;;;12.70;57.19
77023;BME280;65952;51.440;-2.054;2024-03-22T00:44:41;100797.78;;;12.76;57.79
77023;BME280;65952;51.440;-2.054;2024-03-22T00:47:07;100792.91;;;12.63;57.75
77023;BME280;65952;51.440;-2.054;2024-03-22T00:49:32;100789.03;;;12.74;57.83
77023;BME280;65952;51.440;-2.054;2024-03-22T00:51:57;100783.81;;;12.73;57.43
77023;BME280;65952;51.440;-2.054;2024-03-22T00:54:23;100786.69;;;12.63;57.86
77023;BME280;65952;51.440;-2.054;2024-03-22T00:56:48;100782.13;;;12.55;58.47
77023;BME280;65952;51.440;-2.054;2024-03-22T00:59:14;100765.84;;;12.57;58.48
77023;BME280;65952;51.440;-2.054;2024-03-22T01:01:39;100757.06;;;12.46;58.80
77023;BME280;65952;51.440;-2.054;2024-03-22T01:04:34;100760.94;;;12.44;59.32
77023;BME280;65952;51.440;-2.054;2024-03-22T01:07:48;100759.97;;;12.20;60.26
77023;BME280;65952;51.440;-2.054;2024-03-22T01:11:29;100754.91;;;12.17;60.68
77023;BME280;65952;51.440;-2.054;2024-03-22T01:15:06;100753.22;;;12.08;61.03
77023;BME280;65952;51.440;-2.054;2024-03-22T01:18:33;100756.06;;;12.14;61.14
77023;BME280;65952;51.440;-2.054;2024-03-22T01:21:38;100756.06;;;12.31;60.78
77023;BME280;65952;51.440;-2.054;2024-03-22T01:24:03;100747.31;;;12.21;60.81
77023;BME280;65952;51.440;-2.054;2024-03-22T01:26:29;100753.31;;;11.81;62.47
77023;BME280;65952;51.440;-2.054;2024-03-22T01:28:54;100745.47;;;12.29;60.93
77023;BME280;65952;51.440;-2.054;2024-03-22T01:31:19;100745.78;;;12.26;61.15
77023;BME280;65952;51.440;-2.054;2024-03-22T01:33:45;100749.69;;;12.15;61.54
77023;BME280;65952;51.440;-2.054;2024-03-22T01:36:10;100761.81;;;12.11;61.71
77023;BME280;65952;51.440;-2.054;2024-03-22T01:38:36;100748.97;;;11.89;62.40
77023;BME280;65952;51.440;-2.054;2024-03-22T01:41:01;100752.53;;;12.06;62.04
77023;BME280;65952;51.440;-2.054;2024-03-22T01:43:26;100757.44;;;12.27;61.24
77023;BME280;65952;51.440;-2.054;2024-03-22T01:45:52;100759.09;;;12.19;61.68
77023;BME280;65952;51.440;-2.054;2024-03-22T01:48:17;100753.88;;;12.10;62.13
77023;BME280;65952;51.440;-2.054;2024-03-22T01:50:43;100747.81;;;12.41;61.19
77023;BME280;65952;51.440;-2.054;2024-03-22T01:53:08;100752.88;;;12.11;62.27
77023;BME280;65952;51.440;-2.054;2024-03-22T01:55:34;100751.84;;;12.45;61.14
77023;BME280;65952;51.440;-2.054;2024-03-22T01:57:59;100751.19;;;12.34;61.50
77023;BME280;65952;51.440;-2.054;2024-03-22T02:00:25;100754.03;;;12.66;60.74
77023;BME280;65952;51.440;-2.054;2024-03-22T02:02:50;100741.09;;;12.45;60.84
77023;BME280;65952;51.440;-2.054;2024-03-22T02:05:17;100740.72;;;12.64;60.70
77023;BME280;65952;51.440;-2.054;2024-03-22T02:07:46;100744.97;;;12.50;61.19
77023;BME280;65952;51.440;-2.054;2024-03-22T02:10:13;100737.50;;;12.69;60.57
77023;BME280;65952;51.440;-2.054;2024-03-22T02:12:39;100731.97;;;12.62;61.07
77023;BME280;65952;51.440;-2.054;2024-03-22T02:15:06;100731.63;;;12.74;60.77
77023;BME280;65952;51.440;-2.054;2024-03-22T02:17:35;100728.59;;;12.77;60.60
77023;BME280;65952;51.440;-2.054;2024-03-22T02:20:01;100728.59;;;12.77;60.86
77023;BME280;65952;51.440;-2.054;2024-03-22T02:22:28;100729.47;;;12.61;61.50
77023;BME280;65952;51.440;-2.054;2024-03-22T02:25:22;100724.03;;;12.69;61.60
77023;BME280;65952;51.440;-2.054;2024-03-22T02:38:45;100705.50;;;12.82;61.86
77023;BME280;65952;51.440;-2.054;2024-03-22T02:41:10;100700.28;;;12.81;61.79
77023;BME280;65952;51.440;-2.054;2024-03-22T02:43:35;100689.13;;;12.92;61.48
77023;BME280;65952;51.440;-2.054;2024-03-22T02:46:01;100694.56;;;12.76;62.45
77023;BME280;65952;51.440;-2.054;2024-03-22T02:48:26;100682.19;;;12.42;63.26
77023;BME280;65952;51.440;-2.054;2024-03-22T02:50:55;100673.59;;;12.46;63.45
77023;BME280;65952;51.440;-2.054;2024-03-22T02:53:21;100674.53;;;12.70;63.01
77023;BME280;65952;51.440;-2.054;2024-03-22T02:55:46;100659.56;;;12.67;63.07
77023;BME280;65952;51.440;-2.054;2024-03-22T02:58:12;100665.75;;;12.76;62.62
77023;BME280;65952;51.440;-2.054;2024-03-22T03:00:38;100658.22;;;12.72;62.97
77023;BME280;65952;51.440;-2.054;2024-03-22T03:03:06;100648.19;;;12.41;64.10
77023;BME280;65952;51.440;-2.054;2024-03-22T03:05:32;100645.44;;;12.65;63.37
77023;BME280;65952;51.440;-2.054;2024-03-22T03:07:58;100640.00;;;12.82;62.70
77023;BME280;65952;51.440;-2.054;2024-03-22T03:10:23;100639.44;;;12.47;64.23
77023;BME280;65952;51.440;-2.054;2024-03-22T03:12:49;100634.81;;;12.72;63.42
77023;BME280;65952;51.440;-2.054;2024-03-22T03:15:15;100641.00;;;12.81;63.23
77023;BME280;65952;51.440;-2.054;2024-03-22T03:17:41;100635.75;;;12.88;63.82
77023;BME280;65952;51.440;-2.054;2024-03-22T03:20:06;100622.03;;;12.66;64.42
77023;BME280;65952;51.440;-2.054;2024-03-22T03:22:34;100628.91;;;12.77;64.31
77023;BME280;65952;51.440;-2.054;2024-03-22T03:24:59;100625.97;;;12.87;63.85
77023;BME280;65952;51.440;-2.054;2024-03-22T03:27:25;100631.44;;;13.10;63.15
77023;BME280;65952;51.440;-2.054;2024-03-22T03:29:50;100625.13;;;12.94;63.83
77023;BME280;65952;51.440;-2.054;2024-03-22T03:32:16;100626.84;;;12.87;63.78
77023;BME280;65952;51.440;-2.054;2024-03-22T03:34:41;100628.53;;;12.88;64.19
77023;BME280;65952;51.440;-2.054;2024-03-22T03:37:06;100618.78;;;12.79;64.40
77023;BME280;65952;51.440;-2.054;2024-03-22T03:39:32;100622.16;;;12.81;64.51
77023;BME280;65952;51.440;-2.054;2024-03-22T03:41:57;100626.63;;;12.49;65.71
77023;BME280;65952;51.440;-2.054;2024-03-22T03:44:22;100622.31;;;12.79;64.72
77023;BME280;65952;51.440;-2.054;2024-03-22T03:46:48;100620.97;;;12.75;65.13
77023;BME280;65952;51.440;-2.054;2024-03-22T03:49:13;100615.69;;;12.50;66.32
77023;BME280;65952;51.440;-2.054;2024-03-22T03:51:38;100605.00;;;12.74;65.27
77023;BME280;65952;51.440;-2.054;2024-03-22T03:54:04;100608.69;;;12.73;65.81
77023;BME280;65952;51.440;-2.054;2024-03-22T03:56:29;100610.25;;;12.67;65.74
77023;BME280;65952;51.440;-2.054;2024-03-22T03:58:55;100604.41;;;12.87;65.26
77023;BME280;65952;51.440;-2.054;2024-03-22T04:01:21;100597.06;;;13.12;64.14
77023;BME280;65952;51.440;-2.054;2024-03-22T04:03:48;100598.22;;;13.09;64.40
77023;BME280;65952;51.440;-2.054;2024-03-22T04:06:14;100606.50;;;13.08;64.49
77023;BME280;65952;51.440;-2.054;2024-03-22T04:08:39;100604.19;;;13.05;64.82
77023;BME280;65952;51.440;-2.054;2024-03-22T04:11:04;100613.25;;;13.12;64.47
77023;BME280;65952;51.440;-2.054;2024-03-22T04:13:30;100605.09;;;13.20;64.18
77023;BME280;65952;51.440;-2.054;2024-03-22T04:15:58;100595.03;;;13.14;64.43
77023;BME280;65952;51.440;-2.054;2024-03-22T04:18:24;100608.28;;;12.92;65.27
77023;BME280;65952;51.440;-2.054;2024-03-22T04:20:53;100600.50;;;12.97;65.29
77023;BME280;65952;51.440;-2.054;2024-03-22T04:23:19;100610.06;;;13.08;64.62
77023;BME280;65952;51.440;-2.054;2024-03-22T04:26:11;100596.69;;;13.15;64.44
77023;BME280;65952;51.440;-2.054;2024-03-22T04:28:37;100609.28;;;13.23;64.05
77023;BME280;65952;51.440;-2.054;2024-03-22T04:31:05;100592.63;;;13.19;64.44
77023;BME280;65952;51.440;-2.054;2024-03-22T04:33:32;100601.72;;;13.18;64.70
77023;BME280;65952;51.440;-2.054;2024-03-22T04:35:59;100601.00;;;13.24;64.25
77023;BME280;65952;51.440;-2.054;2024-03-22T04:38:25;100604.88;;;12.98;65.44
77023;BME280;65952;51.440;-2.054;2024-03-22T04:40:51;100601.88;;;13.25;64.62
77023;BME280;65952;51.440;-2.054;2024-03-22T04:43:17;100596.03;;;13.13;64.95
77023;BME280;65952;51.440;-2.054;2024-03-22T04:45:47;100601.00;;;13.24;64.62
77023;BME280;65952;51.440;-2.054;2024-03-22T04:48:14;100600.16;;;13.00;65.56
77023;BME280;65952;51.440;-2.054;2024-03-22T04:50:39;100593.41;;;13.05;65.48
77023;BME280;65952;51.440;-2.054;2024-03-22T04:53:05;100594.31;;;13.20;65.42
77023;BME280;65952;51.440;-2.054;2024-03-22T04:55:31;100597.44;;;13.32;65.03
77023;BME280;65952;51.440;-2.054;2024-03-22T04:57:58;100592.81;;;12.86;66.25
77023;BME280;65952;51.440;-2.054;2024-03-22T05:00:23;100599.09;;;13.10;65.73
77023;BME280;65952;51.440;-2.054;2024-03-22T05:02:50;100594.13;;;13.22;65.54
77023;BME280;65952;51.440;-2.054;2024-03-22T05:05:16;100597.53;;;13.15;65.41
77023;BME280;65952;51.440;-2.054;2024-03-22T05:07:41;100590.22;;;13.24;65.39
77023;BME280;65952;51.440;-2.054;2024-03-22T05:10:07;100584.38;;;13.21;65.50
77023;BME280;65952;51.440;-2.054;2024-03-22T05:12:34;100582.91;;;13.33;65.00
77023;BME280;65952;51.440;-2.054;2024-03-22T05:14:59;100585.59;;;13.41;64.79
77023;BME280;65952;51.440;-2.054;2024-03-22T05:17:24;100576.78;;;13.47;64.67
77023;BME280;65952;51.440;-2.054;2024-03-22T05:19:50;100583.78;;;13.33;65.14
77023;BME280;65952;51.440;-2.054;2024-03-22T05:22:15;100576.13;;;13.45;65.05
77023;BME280;65952;51.440;-2.054;2024-03-22T05:24:40;100575.94;;;13.47;64.74
77023;BME280;65952;51.440;-2.054;2024-03-22T05:27:06;100570.25;;;13.42;65.14
77023;BME280;65952;51.440;-2.054;2024-03-22T05:29:31;100571.50;;;13.31;65.66
77023;BME280;65952;51.440;-2.054;2024-03-22T05:31:57;100563.13;;;13.49;64.99
77023;BME280;65952;51.440;-2.054;2024-03-22T05:34:22;100565.09;;;13.55;64.70
77023;BME280;65952;51.440;-2.054;2024-03-22T05:36:48;100569.38;;;13.18;66.23
77023;BME280;65952;51.440;-2.054;2024-03-22T05:39:13;100568.75;;;13.39;65.48
77023;BME280;65952;51.440;-2.054;2024-03-22T05:41:40;100569.63;;;13.31;66.03
77023;BME280;65952;51.440;-2.054;2024-03-22T05:44:05;100564.91;;;13.33;65.71
77023;BME280;65952;51.440;-2.054;2024-03-22T05:46:31;100564.03;;;13.41;65.73
77023;BME280;65952;51.440;-2.054;2024-03-22T05:48:57;100576.25;;;13.52;65.35
77023;BME280;65952;51.440;-2.054;2024-03-22T05:51:24;100570.50;;;13.55;65.35
77023;BME280;65952;51.440;-2.054;2024-03-22T05:53:50;100555.41;;;13.46;65.96
77023;BME280;65952;51.440;-2.054;2024-03-22T05:56:15;100554.75;;;13.44;66.29
77023;BME280;65952;51.440;-2.054;2024-03-22T05:58:40;100563.19;;;13.41;66.44
77023;BME280;65952;51.440;-2.054;2024-03-22T06:01:06;100560.84;;;13.38;66.83
77023;BME280;65952;51.440;-2.054;2024-03-22T06:03:31;100555.41;;;13.46;66.58
77023;BME280;65952;51.440;-2.054;2024-03-22T06:05:59;100554.31;;;13.55;66.55
77023;BME280;65952;51.440;-2.054;2024-03-22T06:08:26;100547.31;;;13.61;66.61
77023;BME280;65952;51.440;-2.054;2024-03-22T06:10:55;100548.00;;;13.63;66.36
77023;BME280;65952;51.440;-2.054;2024-03-22T06:13:23;100554.88;;;13.65;66.54
77023;BME280;65952;51.440;-2.054;2024-03-22T06:16:13;100549.00;;;13.62;66.97
77023;BME280;65952;51.440;-2.054;2024-03-22T06:19:31;100551.13;;;13.75;66.77
77023;BME280;65952;51.440;-2.054;2024-03-22T06:22:33;100548.47;;;13.67;67.46
77023;BME280;65952;51.440;-2.054;2024-03-22T06:28:35;100549.63;;;13.72;67.24
77023;BME280;65952;51.440;-2.054;2024-03-22T06:31:01;100549.72;;;13.79;66.77
77023;BME280;65952;51.440;-2.054;2024-03-22T06:33:26;100548.31;;;13.83;67.03
77023;BME280;65952;51.440;-2.054;2024-03-22T06:35:52;100546.16;;;13.78;66.97
77023;BME280;65952;51.440;-2.054;2024-03-22T06:38:17;100547.66;;;13.81;67.15
77023;BME280;65952;51.440;-2.054;2024-03-22T06:57:52;100549.63;;;14.02;67.23
77023;BME280;65952;51.440;-2.054;2024-03-22T07:00:18;100557.38;;;14.05;67.04
77023;BME280;65952;51.440;-2.054;2024-03-22T07:02:44;100554.41;;;14.00;67.29
77023;BME280;65952;51.440;-2.054;2024-03-22T07:05:10;100555.00;;;13.87;68.05
77023;BME280;65952;51.440;-2.054;2024-03-22T07:07:36;100549.47;;;14.04;67.42
77023;BME280;65952;51.440;-2.054;2024-03-22T07:10:02;100555.25;;;14.16;67.09
77023;BME280;65952;51.440;-2.054;2024-03-22T07:12:28;100552.34;;;14.17;67.08
77023;BME280;65952;51.440;-2.054;2024-03-22T07:14:55;100559.81;;;14.15;67.29
77023;BME280;65952;51.440;-2.054;2024-03-22T07:17:28;100561.19;;;14.26;67.08
77023;BME280;65952;51.440;-2.054;2024-03-22T07:19:53;100561.13;;;14.34;66.51
77023;BME280;65952;51.440;-2.054;2024-03-22T07:32:36;100495.22;;;14.50;67.15
77023;BME280;65952;51.440;-2.054;2024-03-22T07:38:11;100482.38;;;14.67;66.55
77023;BME280;65952;51.440;-2.054;2024-03-22T07:40:37;100495.22;;;14.65;66.28
77023;BME280;65952;51.440;-2.054;2024-03-22T07:43:02;100521.59;;;14.78;66.10
77023;BME280;65952;51.440;-2.054;2024-03-22T07:45:32;100543.28;;;14.85;65.57
77023;BME280;65952;51.440;-2.054;2024-03-22T07:47:58;100546.81;;;14.85;65.38
77023;BME280;65952;51.440;-2.054;2024-03-22T07:50:23;100551.88;;;14.73;66.02
77023;BME280;65952;51.440;-2.054;2024-03-22T07:52:49;100557.56;;;14.49;66.47
77023;BME280;65952;51.440;-2.054;2024-03-22T07:55:15;100560.63;;;14.01;66.02
77023;BME280;65952;51.440;-2.054;2024-03-22T07:57:41;100572.09;;;14.03;65.50
77023;BME280;65952;51.440;-2.054;2024-03-22T08:00:07;100573.94;;;14.02;65.02
77023;BME280;65952;51.440;-2.054;2024-03-22T08:02:39;100578.78;;;14.07;64.84
77023;BME280;65952;51.440;-2.054;2024-03-22T08:05:05;100586.16;;;14.13;64.41
77023;BME280;65952;51.440;-2.054;2024-03-22T08:10:00;100586.25;;;14.20;64.07
77023;BME280;65952;51.440;-2.054;2024-03-22T08:12:27;100583.19;;;14.23;63.73
77023;BME280;65952;51.440;-2.054;2024-03-22T08:14:53;100574.63;;;14.19;63.86
77023;BME280;65952;51.440;-2.054;2024-03-22T08:17:18;100580.75;;;14.28;63.68
77023;BME280;65952;51.440;-2.054;2024-03-22T08:19:44;100582.13;;;14.39;63.77
77023;BME280;65952;51.440;-2.054;2024-03-22T08:25:32;100581.81;;;14.72;63.26
77023;BME280;65952;51.440;-2.054;2024-03-22T08:27:57;100587.94;;;14.81;62.98
77023;BME280;65952;51.440;-2.054;2024-03-22T08:30:24;100585.69;;;14.84;62.40
77023;BME280;65952;51.440;-2.054;2024-03-22T08:32:51;100587.63;;;14.90;61.94
77023;BME280;65952;51.440;-2.054;2024-03-22T08:35:16;100584.53;;;14.93;61.80
77023;BME280;65952;51.440;-2.054;2024-03-22T08:37:42;100584.09;;;14.90;61.08
77023;BME280;65952;51.440;-2.054;2024-03-22T08:40:07;100590.25;;;14.84;60.39
77023;BME280;65952;51.440;-2.054;2024-03-22T08:42:33;100582.69;;;14.79;60.21
77023;BME280;65952;51.440;-2.054;2024-03-22T08:44:58;100580.59;;;14.74;59.80
77023;BME280;65952;51.440;-2.054;2024-03-22T08:47:24;100596.06;;;14.66;59.89
77023;BME280;65952;51.440;-2.054;2024-03-22T08:49:49;100603.88;;;14.60;59.67
77023;BME280;65952;51.440;-2.054;2024-03-22T08:52:15;100603.94;;;14.52;59.48
77023;BME280;65952;51.440;-2.054;2024-03-22T08:54:40;100603.41;;;14.42;59.78
77023;BME280;65952;51.440;-2.054;2024-03-22T08:57:06;100605.63;;;14.23;60.42
77023;BME280;65952;51.440;-2.054;2024-03-22T08:59:31;100604.13;;;14.36;59.98
77023;BME280;65952;51.440;-2.054;2024-03-22T09:01:57;100597.53;;;14.38;59.96
77023;BME280;65952;51.440;-2.054;2024-03-22T09:04:22;100597.72;;;14.37;60.41
77023;BME280;65952;51.440;-2.054;2024-03-22T09:06:48;100599.84;;;14.56;60.19
77023;BME280;65952;51.440;-2.054;2024-03-22T09:09:13;100601.06;;;14.69;60.04
77023;BME280;65952;51.440;-2.054;2024-03-22T09:11:39;100599.66;;;14.73;59.54
77023;BME280;65952;51.440;-2.054;2024-03-22T09:14:04;100598.91;;;14.79;59.60
77023;BME280;65952;51.440;-2.054;2024-03-22T09:16:30;100600.59;;;14.80;59.48
77023;BME280;65952;51.440;-2.054;2024-03-22T09:18:55;100598.91;;;14.79;59.11
77023;BME280;65952;51.440;-2.054;2024-03-22T09:21:21;100604.03;;;14.89;58.92
77023;BME280;65952;51.440;-2.054;2024-03-22T09:23:46;100600.38;;;14.97;59.23
77023;BME280;65952;51.440;-2.054;2024-03-22T09:26:12;100606.63;;;14.97;58.85
77023;BME280;65952;51.440;-2.054;2024-03-22T09:28:37;100597.31;;;15.00;58.33
77023;BME280;65952;51.440;-2.054;2024-03-22T09:31:06;100594.44;;;14.86;58.29
77023;BME280;65952;51.440;-2.054;2024-03-22T09:33:35;100603.19;;;15.03;57.35
77023;BME280;65952;51.440;-2.054;2024-03-22T09:36:04;100604.66;;;15.06;56.93
77023;BME280;65952;51.440;-2.054;2024-03-22T09:38:29;100607.38;;;15.27;56.90
77023;BME280;65952;51.440;-2.054;2024-03-22T09:40:56;100618.13;;;15.21;55.75
77023;BME280;65952;51.440;-2.054;2024-03-22T09:43:22;100620.41;;;15.39;54.87
77023;BME280;65952;51.440;-2.054;2024-03-22T09:45:48;100616.72;;;15.47;54.46
77023;BME280;65952;51.440;-2.054;2024-03-22T09:48:17;100613.66;;;15.50;53.76
77023;BME280;65952;51.440;-2.054;2024-03-22T09:50:44;100608.81;;;15.45;52.94
77023;BME280;65952;51.440;-2.054;2024-03-22T09:53:12;100608.66;;;15.32;52.50
77023;BME280;65952;51.440;-2.054;2024-03-22T09:55:41;100614.78;;;15.40;52.51
77023;BME280;65952;51.440;-2.054;2024-03-22T09:58:10;100609.31;;;15.55;51.53
77023;BME280;65952;51.440;-2.054;2024-03-22T10:00:35;100601.84;;;15.57;50.36
77023;BME280;65952;51.440;-2.054;2024-03-22T10:03:00;100608.56;;;15.62;50.45
77023;BME280;65952;51.440;-2.054;2024-03-22T10:05:26;100621.06;;;15.63;50.49
77023;BME280;65952;51.440;-2.054;2024-03-22T10:07:52;100618.56;;;15.61;50.42
77023;BME280;65952;51.440;-2.054;2024-03-22T10:10:18;100618.88;;;15.30;50.31
77023;BME280;65952;51.440;-2.054;2024-03-22T10:12:44;100612.78;;;15.49;50.58
77023;BME280;65952;51.440;-2.054;2024-03-22T10:15:09;100604.16;;;15.60;49.76
77023;BME280;65952;51.440;-2.054;2024-03-22T10:17:36;100619.72;;;15.95;49.30
77023;BME280;65952;51.440;-2.054;2024-03-22T10:20:02;100608.00;;;16.16;48.54
77023;BME280;65952;51.440;-2.054;2024-03-22T10:22:27;100607.84;;;16.31;48.26
77023;BME280;65952;51.440;-2.054;2024-03-22T10:24:53;100602.13;;;16.13;48.34
77023;BME280;65952;51.440;-2.054;2024-03-22T10:27:18;100602.06;;;16.34;47.99
77023;BME280;65952;51.440;-2.054;2024-03-22T10:29:44;100599.34;;;16.34;46.96
77023;BME280;65952;51.440;-2.054;2024-03-22T10:32:11;100596.31;;;16.51;46.65
77023;BME280;65952;51.440;-2.054;2024-03-22T10:34:37;100587.50;;;16.42;46.49
77023;BME280;65952;51.440;-2.054;2024-03-22T10:37:05;100595.06;;;16.53;46.40
77023;BME280;65952;51.440;-2.054;2024-03-22T10:39:30;100597.13;;;16.45;45.71
77023;BME280;65952;51.440;-2.054;2024-03-22T10:41:56;100592.25;;;16.05;45.19
77023;BME280;65952;51.440;-2.054;2024-03-22T10:44:21;100596.84;;;16.04;45.59
77023;BME280;65952;51.440;-2.054;2024-03-22T10:46:50;100591.78;;;15.95;46.44
77023;BME280;65952;51.440;-2.054;2024-03-22T10:49:19;100598.19;;;16.15;46.36
77023;BME280;65952;51.440;-2.054;2024-03-22T10:51:58;100606.34;;;15.93;46.45
77023;BME280;65952;51.440;-2.054;2024-03-22T10:54:30;100612.94;;;15.84;46.35
77023;BME280;65952;51.440;-2.054;2024-03-22T10:56:57;100605.19;;;15.81;46.52
77023;BME280;65952;51.440;-2.054;2024-03-22T10:59:23;100602.25;;;15.76;46.46
77023;BME280;65952;51.440;-2.054;2024-03-22T11:01:49;100607.81;;;15.74;46.51
77023;BME280;65952;51.440;-2.054;2024-03-22T11:04:16;100612.28;;;15.82;46.50
77023;BME280;65952;51.440;-2.054;2024-03-22T11:06:48;100609.00;;;15.65;46.17
77023;BME280;65952;51.440;-2.054;2024-03-22T11:09:23;100600.16;;;15.78;46.44
77023;BME280;65952;51.440;-2.054;2024-03-22T11:11:51;100601.19;;;15.77;46.27
77023;BME280;65952;51.440;-2.054;2024-03-22T11:14:17;100591.84;;;15.80;46.57
77023;BME280;65952;51.440;-2.054;2024-03-22T11:16:48;100601.75;;;15.87;46.87
77023;BME280;65952;51.440;-2.054;2024-03-22T11:19:14;100604.72;;;15.99;46.97
77023;BME280;65952;51.440;-2.054;2024-03-22T11:21:39;100599.75;;;16.03;47.00
77023;BME280;65952;51.440;-2.054;2024-03-22T11:24:05;100597.63;;;15.98;47.30
77023;BME280;65952;51.440;-2.054;2024-03-22T11:26:34;100603.84;;;15.92;47.73
77023;BME280;65952;51.440;-2.054;2024-03-22T11:28:59;100595.81;;;16.05;47.57
77023;BME280;65952;51.440;-2.054;2024-03-22T11:31:26;100592.53;;;16.10;46.73
77023;BME280;65952;51.440;-2.054;2024-03-22T11:33:54;100595.16;;;16.03;46.58
77023;BME280;65952;51.440;-2.054;2024-03-22T11:36:21;100602.16;;;15.91;47.13
77023;BME280;65952;51.440;-2.054;2024-03-22T11:38:47;100598.09;;;15.80;47.51
77023;BME280;65952;51.440;-2.054;2024-03-22T11:41:21;100604.81;;;15.84;47.06
77023;BME280;65952;51.440;-2.054;2024-03-22T11:43:55;100593.25;;;15.97;47.00
77023;BME280;65952;51.440;-2.054;2024-03-22T11:46:21;100598.13;;;16.08;46.76
77023;BME280;65952;51.440;-2.054;2024-03-22T11:48:53;100585.09;;;16.19;46.59
77023;BME280;65952;51.440;-2.054;2024-03-22T11:51:19;100584.41;;;16.10;46.44
77023;BME280;65952;51.440;-2.054;2024-03-22T11:53:51;100587.03;;;16.32;46.12
77023;BME280;65952;51.440;-2.054;2024-03-22T11:56:19;100586.06;;;16.46;45.92
77023;BME280;65952;51.440;-2.054;2024-03-22T11:58:48;100581.69;;;16.45;45.58
77023;BME280;65952;51.440;-2.054;2024-03-22T12:01:17;100580.16;;;16.29;45.69
77023;BME280;65952;51.440;-2.054;2024-03-22T12:03:48;100579.69;;;16.19;45.73
77023;BME280;65952;51.440;-2.054;2024-03-22T12:06:15;100576.53;;;15.87;45.23
77023;BME280;65952;51.440;-2.054;2024-03-22T12:08:43;100574.91;;;15.92;46.12
77023;BME280;65952;51.440;-2.054;2024-03-22T12:11:10;100567.28;;;15.81;45.44
77023;BME280;65952;51.440;-2.054;2024-03-22T12:13:36;100569.69;;;15.69;45.82
77023;BME280;65952;51.440;-2.054;2024-03-22T12:16:03;100568.88;;;15.47;46.38
77023;BME280;65952;51.440;-2.054;2024-03-22T12:18:29;100573.00;;;15.43;46.15
77023;BME280;65952;51.440;-2.054;2024-03-22T12:20:54;100559.59;;;15.56;46.74
77023;BME280;65952;51.440;-2.054;2024-03-22T12:23:19;100556.69;;;15.58;46.42
77023;BME280;65952;51.440;-2.054;2024-03-22T12:25:45;100558.16;;;15.82;46.31
77023;BME280;65952;51.440;-2.054;2024-03-22T12:28:10;100555.31;;;15.90;46.28
77023;BME280;65952;51.440;-2.054;2024-03-22T12:30:36;100561.75;;;15.89;44.44
77023;BME280;65952;51.440;-2.054;2024-03-22T12:33:01;100555.97;;;15.92;44.20
77023;BME280;65952;51.440;-2.054;2024-03-22T12:35:26;100557.03;;;15.76;43.64
77023;BME280;65952;51.440;-2.054;2024-03-22T12:37:52;100550.03;;;15.82;43.27
77023;BME280;65952;51.440;-2.054;2024-03-22T12:40:18;100559.31;;;15.73;43.76
77023;BME280;65952;51.440;-2.054;2024-03-22T12:42:43;100554.47;;;15.68;43.37
77023;BME280;65952;51.440;-2.054;2024-03-22T12:45:09;100556.84;;;15.78;43.70
77023;BME280;65952;51.440;-2.054;2024-03-22T12:47:34;100550.91;;;15.89;43.84
77023;BME280;65952;51.440;-2.054;2024-03-22T12:50:00;100549.13;;;15.75;43.89
77023;BME280;65952;51.440;-2.054;2024-03-22T12:52:25;100549.94;;;15.97;43.59
77023;BME280;65952;51.440;-2.054;2024-03-22T12:54:51;100539.16;;;16.04;43.58
77023;BME280;65952;51.440;-2.054;2024-03-22T12:57:16;100535.16;;;16.00;43.94
77023;BME280;65952;51.440;-2.054;2024-03-22T12:59:42;100535.16;;;16.00;43.43
77023;BME280;65952;51.440;-2.054;2024-03-22T13:02:07;100536.56;;;16.24;42.76
77023;BME280;65952;51.440;-2.054;2024-03-22T13:04:33;100530.53;;;16.29;42.02
77023;BME280;65952;51.440;-2.054;2024-03-22T13:06:58;100532.06;;;16.45;41.89
77023;BME280;65952;51.440;-2.054;2024-03-22T13:09:24;100515.53;;;16.81;41.43
77023;BME280;65952;51.440;-2.054;2024-03-22T13:11:50;100519.63;;;16.64;38.92
77023;BME280;65952;51.440;-2.054;2024-03-22T13:14:15;100517.13;;;16.55;37.92
77023;BME280;65952;51.440;-2.054;2024-03-22T13:16:41;100514.13;;;16.99;38.67
77023;BME280;65952;51.440;-2.054;2024-03-22T13:19:06;100506.53;;;16.74;37.54
77023;BME280;65952;51.440;-2.054;2024-03-22T13:21:37;100502.25;;;17.06;38.64
77023;BME280;65952;51.440;-2.054;2024-03-22T13:24:03;100503.56;;;17.37;36.88
77023;BME280;65952;51.440;-2.054;2024-03-22T13:26:28;100503.34;;;17.59;36.88
77023;BME280;65952;51.440;-2.054;2024-03-22T13:28:53;100494.75;;;17.89;36.60
77023;BME280;65952;51.440;-2.054;2024-03-22T13:31:19;100495.97;;;18.13;35.72
77023;BME280;65952;51.440;-2.054;2024-03-22T13:33:44;100492.97;;;18.28;35.50
77023;BME280;65952;51.440;-2.054;2024-03-22T13:36:10;100479.25;;;18.16;34.91
77023;BME280;65952;51.440;-2.054;2024-03-22T13:38:36;100473.97;;;18.28;34.91